createdAt,value
2024-02-04T00:02:16.005Z,2.13
2024-02-04T00:04:43.676Z,2.35
2024-02-04T00:07:11.167Z,1.88
2024-02-04T00:09:39.185Z,2.20
2024-02-04T00:12:07.481Z,2.40
2024-02-04T00:14:34.884Z,2.40
2024-02-04T00:17:02.340Z,2.15
2024-02-04T00:19:29.758Z,2.22
2024-02-04T00:21:57.211Z,2.22
2024-02-04T00:24:24.698Z,2.00
2024-02-04T00:26:52.153Z,2.28
2024-02-04T00:29:19.545Z,1.75
2024-02-04T00:31:46.889Z,1.77
2024-02-04T00:34:14.338Z,2.35
2024-02-04T00:36:41.943Z,1.88
2024-02-04T00:39:09.842Z,2.20
2024-02-04T00:41:37.353Z,2.83
2024-02-04T00:44:04.798Z,2.22
2024-02-04T00:46:32.201Z,2.05
2024-02-04T00:48:59.676Z,2.85
2024-02-04T00:51:27.174Z,2.72
2024-02-04T00:53:54.513Z,2.60
2024-02-04T00:56:21.846Z,2.42
2024-02-04T00:58:49.240Z,1.88
2024-02-04T01:01:16.653Z,2.30
2024-02-04T01:03:44.155Z,1.90
2024-02-04T01:06:11.655Z,2.72
2024-02-04T01:08:39.183Z,2.38
2024-02-04T01:11:07.877Z,2.03
2024-02-04T01:13:35.675Z,2.13
2024-02-04T01:16:03.115Z,3.08
2024-02-04T01:18:32.707Z,1.85
2024-02-04T01:21:01.649Z,2.40
2024-02-04T01:23:29.008Z,2.83
2024-02-04T01:25:56.312Z,3.15
2024-02-04T01:28:23.620Z,2.50
2024-02-04T01:30:50.995Z,1.83
2024-02-04T01:33:18.573Z,1.35
2024-02-04T01:35:46.641Z,1.83
2024-02-04T01:38:14.062Z,3.03
2024-02-04T01:40:41.922Z,2.33
2024-02-04T01:43:09.358Z,2.10
2024-02-04T01:45:36.793Z,2.10
2024-02-04T01:48:05.367Z,1.77
2024-02-04T01:50:32.823Z,2.65
2024-02-04T01:53:00.581Z,2.08
2024-02-04T01:55:27.962Z,1.73
2024-02-04T01:57:55.454Z,2.50
2024-02-04T02:00:23.181Z,3.03
2024-02-04T02:02:53.370Z,2.50
2024-02-04T02:05:20.848Z,1.73
2024-02-04T02:07:52.219Z,1.88
2024-02-04T02:10:21.197Z,1.73
2024-02-04T02:12:57.947Z,2.25
2024-02-04T02:15:33.289Z,2.50
2024-02-04T02:18:19.303Z,1.13
2024-02-04T02:21:15.737Z,2.00
2024-02-04T02:23:59.547Z,2.38
2024-02-04T02:26:27.120Z,1.80
2024-02-04T02:28:54.436Z,2.22
2024-02-04T02:31:25.215Z,1.92
2024-02-04T02:33:59.254Z,1.33
2024-02-04T02:36:30.595Z,1.77
2024-02-04T02:39:06.635Z,1.95
2024-02-04T02:41:35.435Z,1.67
2024-02-04T02:44:04.117Z,1.52
2024-02-04T02:46:31.600Z,1.40
2024-02-04T02:48:59.459Z,1.40
2024-02-04T02:51:26.841Z,1.77
2024-02-04T02:53:54.257Z,1.80
2024-02-04T02:56:21.598Z,2.47
2024-02-04T02:58:48.964Z,1.75
2024-02-04T03:01:16.511Z,1.70
2024-02-04T03:03:43.943Z,2.33
2024-02-04T03:06:11.371Z,1.33
2024-02-04T03:08:38.675Z,1.85
2024-02-04T03:11:07.069Z,2.60
2024-02-04T03:13:34.420Z,1.83
2024-02-04T03:16:01.929Z,2.17
2024-02-04T03:18:29.368Z,2.38
2024-02-04T03:20:56.802Z,1.80
2024-02-04T03:23:24.106Z,2.65
2024-02-04T03:25:51.501Z,2.45
2024-02-04T03:28:20.228Z,1.98
2024-02-04T03:30:47.603Z,1.55
2024-02-04T03:33:15.689Z,2.17
2024-02-04T03:35:43.124Z,1.85
2024-02-04T03:38:10.531Z,2.20
2024-02-04T03:40:37.806Z,2.47
2024-02-04T03:43:05.378Z,2.63
2024-02-04T03:45:32.765Z,2.35
2024-02-04T03:48:00.245Z,1.90
2024-02-04T03:50:27.603Z,1.13
2024-02-04T03:52:55.014Z,1.55
2024-02-04T03:55:22.356Z,1.30
2024-02-04T03:57:49.770Z,1.52
2024-02-04T04:00:17.483Z,2.47
2024-02-04T04:02:44.775Z,2.25
2024-02-04T04:05:15.143Z,1.83
2024-02-04T04:07:42.787Z,1.45
2024-02-04T04:10:10.391Z,1.65
2024-02-04T04:12:37.743Z,1.52
2024-02-04T04:15:05.617Z,1.73
2024-02-04T04:17:32.989Z,1.88
2024-02-04T04:20:00.462Z,1.67
2024-02-04T04:22:27.889Z,1.20
2024-02-04T04:24:55.325Z,1.67
2024-02-04T04:27:22.699Z,1.85
2024-02-04T04:29:50.169Z,1.40
2024-02-04T04:32:17.574Z,2.05
2024-02-04T04:34:44.943Z,1.60
2024-02-04T04:37:12.290Z,1.90
2024-02-04T04:39:39.635Z,1.25
2024-02-04T04:42:07.132Z,1.13
2024-02-04T04:44:34.511Z,1.92
2024-02-04T04:47:01.814Z,1.83
2024-02-04T04:49:29.167Z,1.85
2024-02-04T04:51:56.700Z,1.40
2024-02-04T04:54:24.486Z,1.90
2024-02-04T04:56:51.891Z,1.80
2024-02-04T04:59:19.390Z,1.65
2024-02-04T05:01:48.579Z,1.95
2024-02-04T05:04:17.811Z,2.75
2024-02-04T05:06:45.331Z,2.05
2024-02-04T05:09:12.812Z,2.17
2024-02-04T05:11:40.130Z,2.17
2024-02-04T05:14:07.414Z,1.80
2024-02-04T05:16:37.016Z,1.25
2024-02-04T05:19:04.840Z,2.20
2024-02-04T05:21:32.261Z,1.70
2024-02-04T05:23:59.695Z,1.77
2024-02-04T05:26:27.065Z,1.77
2024-02-04T05:28:54.537Z,1.55
2024-02-04T05:31:21.857Z,1.50
2024-02-04T05:33:49.261Z,1.92
2024-02-04T05:36:17.440Z,1.75
2024-02-04T05:38:47.253Z,1.95
2024-02-04T05:41:14.691Z,1.33
2024-02-04T05:43:41.999Z,1.25
2024-02-04T05:46:09.469Z,1.27
2024-02-04T05:48:37.244Z,1.63
2024-02-04T05:51:04.884Z,1.52
2024-02-04T05:53:32.307Z,1.58
2024-02-04T05:55:59.633Z,1.27
2024-02-04T05:58:26.954Z,1.50
2024-02-04T06:00:54.354Z,1.35
2024-02-04T06:03:21.737Z,1.20
2024-02-04T06:05:49.198Z,1.02
2024-02-04T06:08:16.551Z,2.03
2024-02-04T06:10:43.862Z,2.22
2024-02-04T06:13:11.241Z,1.65
2024-02-04T06:15:38.635Z,1.65
2024-02-04T06:18:06.469Z,1.98
2024-02-04T06:20:33.883Z,2.22
2024-02-04T06:23:02.067Z,2.42
2024-02-04T06:25:29.604Z,3.10
2024-02-04T06:27:57.293Z,2.00
2024-02-04T06:30:24.828Z,2.33
2024-02-04T06:32:52.417Z,2.78
2024-02-04T06:35:19.852Z,2.33
2024-02-04T06:37:47.244Z,2.42
2024-02-04T06:40:14.678Z,2.83
2024-02-04T06:42:42.181Z,2.67
2024-02-04T06:45:10.056Z,2.10
2024-02-04T06:47:37.538Z,2.10
2024-02-04T06:50:06.583Z,2.85
2024-02-04T06:52:33.930Z,3.15
2024-02-04T06:55:01.433Z,2.55
2024-02-04T06:57:28.977Z,2.60
2024-02-04T06:59:56.359Z,3.17
2024-02-04T07:02:23.765Z,3.10
2024-02-04T07:04:54.744Z,2.42
2024-02-04T07:07:22.461Z,2.70
2024-02-04T07:09:49.995Z,2.03
2024-02-04T07:12:17.676Z,2.38
2024-02-04T07:14:45.073Z,3.00
2024-02-04T07:17:12.950Z,2.58
2024-02-04T07:19:40.715Z,2.78
2024-02-04T07:22:08.549Z,2.80
2024-02-04T07:24:36.666Z,2.95
2024-02-04T07:27:04.340Z,3.53
2024-02-04T07:29:31.818Z,2.45
2024-02-04T07:31:59.615Z,2.20
2024-02-04T07:34:27.215Z,2.35
2024-02-04T07:36:54.794Z,2.92
2024-02-04T07:39:22.177Z,2.28
2024-02-04T07:41:49.652Z,2.80
2024-02-04T07:44:17.046Z,2.00
2024-02-04T07:46:44.678Z,2.88
2024-02-04T07:49:12.119Z,3.67
2024-02-04T07:51:39.664Z,2.78
2024-02-04T07:54:07.036Z,2.33
2024-02-04T07:56:34.521Z,2.63
2024-02-04T07:59:04.099Z,3.10
2024-02-04T08:01:32.058Z,1.92
2024-02-04T08:03:59.675Z,2.53
2024-02-04T08:06:27.225Z,1.90
2024-02-04T08:08:54.608Z,2.83
2024-02-04T08:11:22.748Z,2.50
2024-02-04T08:13:50.096Z,2.75
2024-02-04T08:16:17.510Z,2.75
2024-02-04T08:18:45.109Z,2.20
2024-02-04T08:21:12.698Z,2.33
2024-02-04T08:23:41.027Z,1.33
2024-02-04T08:26:10.148Z,2.63
2024-02-04T08:28:37.559Z,1.67
2024-02-04T08:31:05.131Z,2.13
2024-02-04T08:33:32.900Z,1.98
2024-02-04T08:36:00.659Z,2.17
2024-02-04T08:38:28.075Z,1.75
2024-02-04T08:40:55.392Z,2.45
2024-02-04T08:43:22.774Z,1.98
2024-02-04T08:45:50.203Z,2.90
2024-02-04T08:48:17.563Z,2.42
2024-02-04T08:50:44.919Z,2.17
2024-02-04T08:53:12.434Z,2.35
2024-02-04T08:55:40.269Z,2.28
2024-02-04T08:58:07.715Z,3.05
2024-02-04T09:00:35.189Z,2.60
2024-02-04T09:03:02.840Z,2.25
2024-02-04T09:05:30.218Z,2.13
2024-02-04T09:07:57.754Z,1.98
2024-02-04T09:10:25.106Z,2.03
2024-02-04T09:12:52.498Z,2.42
2024-02-04T09:15:19.989Z,2.50
2024-02-04T09:17:47.413Z,2.45
2024-02-04T09:20:16.624Z,2.47
2024-02-04T09:22:44.281Z,2.88
2024-02-04T09:25:11.945Z,1.83
2024-02-04T09:27:39.515Z,2.85
2024-02-04T09:30:07.671Z,2.60
2024-02-04T09:32:35.549Z,2.80
2024-02-04T09:35:04.441Z,3.22
2024-02-04T09:37:31.973Z,1.95
2024-02-04T09:39:59.840Z,2.28
2024-02-04T09:42:29.308Z,2.47
2024-02-04T09:44:56.915Z,2.10
2024-02-04T09:47:24.303Z,1.58
2024-02-04T09:49:53.664Z,2.28
2024-02-04T09:52:28.720Z,1.73
2024-02-04T09:55:02.924Z,2.78
2024-02-04T09:57:35.782Z,1.88
2024-02-04T10:00:07.098Z,2.58
2024-02-04T10:02:34.922Z,2.53
2024-02-04T10:05:04.101Z,2.50
2024-02-04T10:07:31.809Z,1.65
2024-02-04T10:09:59.326Z,2.17
2024-02-04T10:12:26.906Z,2.30
2024-02-04T10:14:54.356Z,1.73
2024-02-04T10:17:22.572Z,2.08
2024-02-04T10:19:50.408Z,2.30
2024-02-04T10:22:18.593Z,2.60
2024-02-04T10:24:48.211Z,2.38
2024-02-04T10:27:26.214Z,2.83
2024-02-04T10:29:57.708Z,2.42
2024-02-04T10:32:25.994Z,1.75
2024-02-04T10:34:53.806Z,2.75
2024-02-04T10:37:21.247Z,2.63
2024-02-04T10:39:48.800Z,3.00
2024-02-04T10:42:18.759Z,2.38
2024-02-04T10:44:50.263Z,1.90
2024-02-04T10:47:23.058Z,2.30
2024-02-04T10:49:56.124Z,2.47
2024-02-04T10:52:34.089Z,1.48
2024-02-04T10:55:01.643Z,2.38
2024-02-04T10:57:31.570Z,2.35
2024-02-04T11:00:00.524Z,2.72
2024-02-04T11:02:28.521Z,2.50
2024-02-04T11:04:56.914Z,2.20
2024-02-04T11:07:24.631Z,2.58
2024-02-04T11:09:53.820Z,2.13
2024-02-04T11:12:23.220Z,2.50
2024-02-04T11:14:54.665Z,1.67
2024-02-04T11:17:31.467Z,2.10
2024-02-04T11:20:06.967Z,2.55
2024-02-04T11:22:49.154Z,2.28
2024-02-04T11:25:39.032Z,2.43
2024-02-04T11:28:06.955Z,2.47
2024-02-04T11:30:36.779Z,2.92
2024-02-04T11:33:08.633Z,4.32
2024-02-04T11:35:37.578Z,3.17
2024-02-04T11:38:05.929Z,3.88
2024-02-04T11:40:37.574Z,3.42
2024-02-04T11:43:15.487Z,2.92
2024-02-04T11:45:44.336Z,2.35
2024-02-04T11:48:12.669Z,2.33
2024-02-04T11:50:41.588Z,2.10
2024-02-04T11:53:14.089Z,2.35
2024-02-04T11:55:45.271Z,1.95
2024-02-04T11:58:14.402Z,2.47
2024-02-04T12:00:45.788Z,1.52
2024-02-04T12:03:13.335Z,1.88
2024-02-04T12:05:41.093Z,1.20
2024-02-04T12:08:09.662Z,1.40
2024-02-04T12:10:37.930Z,1.30
2024-02-04T12:13:08.045Z,1.63
2024-02-04T12:15:40.316Z,1.70
2024-02-04T12:18:11.781Z,1.40
2024-02-04T12:20:40.018Z,1.00
2024-02-04T12:23:08.752Z,0.90
2024-02-04T12:25:37.797Z,1.50
2024-02-04T12:28:06.677Z,0.98
2024-02-04T12:30:35.017Z,1.13
2024-02-04T12:33:05.412Z,0.90
2024-02-04T12:35:33.789Z,0.80
2024-02-04T12:38:01.822Z,1.00
2024-02-04T12:40:31.374Z,0.98
2024-02-04T12:43:06.266Z,0.63
2024-02-04T12:45:34.750Z,0.73
2024-02-04T12:48:04.172Z,1.10
2024-02-04T12:50:34.260Z,1.17
2024-02-04T12:53:06.743Z,0.85
2024-02-04T12:55:36.779Z,1.13
2024-02-04T12:58:09.757Z,1.20
2024-02-04T13:00:38.436Z,0.82
2024-02-04T13:03:07.406Z,1.30
2024-02-04T13:05:35.338Z,1.23
2024-02-04T13:08:04.987Z,1.08
2024-02-04T13:10:35.638Z,1.30
2024-02-04T13:13:11.263Z,1.23
2024-02-04T13:15:44.258Z,0.70
2024-02-04T13:18:13.336Z,1.48
2024-02-04T13:20:41.887Z,0.90
2024-02-04T13:23:12.907Z,1.17
2024-02-04T13:25:40.578Z,1.10
2024-02-04T13:28:08.094Z,0.55
2024-02-04T13:30:35.589Z,1.10
2024-02-04T13:33:03.885Z,1.33
2024-02-04T13:35:31.752Z,1.50
2024-02-04T13:37:59.337Z,1.42
2024-02-04T13:40:27.001Z,1.73
2024-02-04T13:42:54.583Z,1.83
2024-02-04T13:45:23.590Z,1.23
2024-02-04T13:47:51.281Z,1.83
2024-02-04T13:50:18.846Z,1.75
2024-02-04T13:52:46.380Z,1.30
2024-02-04T13:55:13.870Z,1.38
2024-02-04T13:57:41.666Z,1.58
2024-02-04T14:00:09.760Z,1.48
2024-02-04T14:02:39.365Z,2.00
2024-02-04T14:05:07.294Z,1.33
2024-02-04T14:07:34.770Z,1.15
2024-02-04T14:10:02.565Z,1.45
2024-02-04T14:12:30.619Z,1.73
2024-02-04T14:14:58.611Z,1.27
2024-02-04T14:17:25.964Z,1.98
2024-02-04T14:19:53.495Z,1.58
2024-02-04T14:22:21.716Z,1.40
2024-02-04T14:24:50.208Z,1.77
2024-02-04T14:27:17.600Z,1.20
2024-02-04T14:29:45.046Z,1.55
2024-02-04T14:32:12.404Z,1.40
2024-02-04T14:34:39.926Z,2.10
2024-02-04T14:37:09.522Z,1.70
2024-02-04T14:39:38.380Z,1.20
2024-02-04T14:42:05.942Z,1.33
2024-02-04T14:44:33.718Z,1.17
2024-02-04T14:47:01.187Z,1.20
2024-02-04T14:49:31.018Z,1.42
2024-02-04T14:51:59.058Z,1.52
2024-02-04T14:54:28.240Z,1.85
2024-02-04T14:56:55.853Z,1.40
2024-02-04T14:59:23.581Z,1.25
2024-02-04T15:01:51.988Z,2.15
2024-02-04T15:04:20.432Z,1.90
2024-02-04T15:06:52.640Z,1.50
2024-02-04T15:09:21.115Z,1.88
2024-02-04T15:11:48.801Z,1.58
2024-02-04T15:14:17.991Z,1.73
2024-02-04T15:16:45.619Z,1.55
2024-02-04T15:19:13.417Z,2.33
2024-02-04T15:21:41.070Z,1.05
2024-02-04T15:24:09.412Z,1.83
2024-02-04T15:26:41.399Z,2.45
2024-02-04T15:29:10.719Z,1.67
2024-02-04T15:31:38.239Z,1.48
2024-02-04T15:34:07.110Z,1.33
2024-02-04T15:36:34.804Z,1.20
2024-02-04T15:39:04.113Z,1.20
2024-02-04T15:41:33.323Z,1.73
2024-02-04T15:44:00.763Z,1.40
2024-02-04T15:46:30.602Z,1.17
2024-02-04T15:49:02.509Z,1.90
2024-02-04T15:51:30.390Z,1.10
2024-02-04T15:53:58.087Z,1.10
2024-02-04T15:56:27.894Z,1.40
2024-02-04T15:59:14.512Z,1.40
2024-02-04T16:01:42.486Z,1.08
2024-02-04T16:04:11.155Z,1.48
2024-02-04T16:06:40.211Z,1.42
2024-02-04T16:09:09.502Z,1.42
2024-02-04T16:11:49.487Z,1.33
2024-02-04T16:14:17.136Z,1.23
2024-02-04T16:16:47.036Z,1.55
2024-02-04T16:19:15.709Z,1.15
2024-02-04T16:21:45.409Z,1.33
2024-02-04T16:24:12.888Z,1.63
2024-02-04T16:26:40.288Z,2.03
2024-02-04T16:29:07.716Z,1.17
2024-02-04T16:31:35.050Z,2.00
2024-02-04T16:34:02.537Z,1.20
2024-02-04T16:36:30.128Z,1.13
2024-02-04T16:38:57.569Z,1.73
2024-02-04T16:41:24.901Z,1.73
2024-02-04T16:43:52.365Z,1.67
2024-02-04T16:46:20.169Z,1.20
2024-02-04T16:48:47.729Z,1.92
2024-02-04T16:51:15.268Z,2.13
2024-02-04T16:53:42.699Z,1.05
2024-02-04T16:56:10.363Z,2.15
2024-02-04T16:58:37.731Z,2.22
2024-02-04T17:01:05.892Z,1.80
2024-02-04T17:03:33.919Z,2.00
2024-02-04T17:06:01.729Z,2.30
2024-02-04T17:08:29.444Z,1.83
2024-02-04T17:10:57.284Z,2.38
2024-02-04T17:13:25.877Z,2.10
2024-02-04T17:15:54.543Z,2.10
2024-02-04T17:18:40.535Z,2.30
2024-02-04T17:21:11.576Z,2.53
2024-02-04T17:23:41.513Z,1.98
2024-02-04T17:26:11.473Z,1.95
2024-02-04T17:28:39.135Z,2.25
2024-02-04T17:31:07.102Z,2.17
2024-02-04T17:33:34.937Z,2.78
2024-02-04T17:36:02.455Z,2.28
2024-02-04T17:38:29.812Z,2.35
2024-02-04T17:40:57.399Z,2.33
2024-02-04T17:43:24.895Z,1.67
2024-02-04T17:45:52.388Z,2.13
2024-02-04T17:48:19.742Z,2.47
2024-02-04T17:50:47.308Z,1.85
2024-02-04T17:53:15.697Z,2.70
2024-02-04T17:55:43.386Z,2.42
2024-02-04T17:58:11.922Z,2.15
2024-02-04T18:00:42.135Z,1.90
2024-02-04T18:03:09.727Z,2.17
2024-02-04T18:05:43.470Z,1.98
2024-02-04T18:08:11.760Z,2.20
2024-02-04T18:10:39.242Z,1.15
2024-02-04T18:13:06.792Z,1.27
2024-02-04T18:15:34.611Z,1.20
2024-02-04T18:18:02.231Z,1.00
2024-02-04T18:20:29.778Z,1.45
2024-02-04T18:22:57.126Z,1.52
2024-02-04T18:25:24.599Z,1.40
2024-02-04T18:27:52.563Z,1.63
2024-02-04T18:30:22.317Z,1.63
2024-02-04T18:32:49.958Z,1.42
2024-02-04T18:35:17.530Z,1.52
2024-02-04T18:37:45.064Z,2.53
2024-02-04T18:40:12.775Z,2.13
2024-02-04T18:42:40.656Z,1.13
2024-02-04T18:45:08.745Z,1.75
2024-02-04T18:47:36.399Z,1.70
2024-02-04T18:50:04.128Z,0.88
2024-02-04T18:52:31.610Z,1.13
2024-02-04T18:54:59.428Z,1.33
2024-02-04T18:57:27.262Z,1.45
2024-02-04T18:59:54.711Z,1.65
2024-02-04T19:02:22.078Z,1.50
2024-02-04T19:04:50.801Z,1.65
2024-02-04T19:07:18.489Z,1.75
2024-02-04T19:09:46.013Z,0.95
2024-02-04T19:12:13.855Z,1.75
2024-02-04T19:14:41.662Z,1.35
2024-02-04T19:17:09.090Z,1.65
2024-02-04T19:19:38.795Z,1.48
2024-02-04T19:22:06.428Z,1.70
2024-02-04T19:24:34.514Z,1.63
2024-02-04T19:27:02.210Z,1.98
2024-02-04T19:29:32.712Z,1.90
2024-02-04T19:32:00.076Z,1.55
2024-02-04T19:34:27.482Z,1.90
2024-02-04T19:36:54.866Z,1.10
2024-02-04T19:39:22.174Z,1.67
2024-02-04T19:41:49.732Z,1.45
2024-02-04T19:44:17.220Z,1.48
2024-02-04T19:46:44.530Z,2.63
2024-02-04T19:49:12.125Z,2.10
2024-02-04T19:51:39.557Z,1.83
2024-02-04T19:54:07.002Z,2.60
2024-02-04T19:56:34.389Z,1.98
2024-02-04T19:59:04.890Z,1.55
2024-02-04T20:01:33.854Z,2.00
2024-02-04T20:04:01.624Z,2.08
2024-02-04T20:06:29.305Z,1.45
2024-02-04T20:08:57.833Z,1.38
2024-02-04T20:11:25.640Z,2.00
2024-02-04T20:13:53.314Z,1.67
2024-02-04T20:16:20.674Z,1.48
2024-02-04T20:18:48.699Z,2.22
2024-02-04T20:21:16.277Z,1.65
2024-02-04T20:23:44.000Z,2.38
2024-02-04T20:26:11.316Z,2.10
2024-02-04T20:28:40.381Z,1.60
2024-02-04T20:31:08.532Z,1.98
2024-02-04T20:33:36.685Z,2.33
2024-02-04T20:36:04.769Z,1.38
2024-02-04T20:38:32.193Z,2.45
2024-02-04T20:40:59.661Z,1.92
2024-02-04T20:43:26.985Z,2.33
2024-02-04T20:45:54.344Z,2.20
2024-02-04T20:48:21.976Z,1.77
2024-02-04T20:50:49.271Z,1.85
2024-02-04T20:53:16.662Z,3.03
2024-02-04T20:55:43.975Z,1.63
2024-02-04T20:58:11.390Z,1.95
2024-02-04T21:00:38.994Z,2.22
2024-02-04T21:03:07.633Z,1.90
2024-02-04T21:05:36.484Z,2.10
2024-02-04T21:08:08.035Z,2.00
2024-02-04T21:10:37.658Z,2.60
2024-02-04T21:13:06.212Z,1.58
2024-02-04T21:15:37.624Z,2.20
2024-02-04T21:18:05.673Z,2.25
2024-02-04T21:20:33.677Z,2.15
2024-02-04T21:23:01.006Z,2.97
2024-02-04T21:25:28.528Z,2.15
2024-02-04T21:27:56.056Z,2.55
2024-02-04T21:30:23.406Z,2.35
2024-02-04T21:32:50.855Z,2.20
2024-02-04T21:35:18.409Z,1.90
2024-02-04T21:37:45.820Z,1.88
2024-02-04T21:40:13.467Z,1.75
2024-02-04T21:42:40.990Z,1.63
2024-02-04T21:45:08.708Z,1.55
2024-02-04T21:47:36.178Z,1.98
2024-02-04T21:50:05.477Z,1.33
2024-02-04T21:52:32.867Z,1.42
2024-02-04T21:55:00.257Z,1.75
2024-02-04T21:57:27.738Z,1.23
2024-02-04T21:59:55.056Z,1.52
2024-02-04T22:02:22.384Z,1.50
2024-02-04T22:04:49.749Z,1.30
2024-02-04T22:07:17.870Z,1.17
2024-02-04T22:09:45.276Z,2.05
2024-02-04T22:12:12.606Z,2.05
2024-02-04T22:14:39.903Z,1.80
2024-02-04T22:17:07.216Z,1.70
2024-02-04T22:19:34.708Z,1.50
2024-02-04T22:22:02.103Z,1.58
2024-02-04T22:24:29.448Z,1.35
2024-02-04T22:26:56.844Z,1.20
2024-02-04T22:29:24.174Z,1.83
2024-02-04T22:31:51.511Z,1.17
2024-02-04T22:34:19.373Z,1.70
2024-02-04T22:36:46.779Z,1.48
2024-02-04T22:39:14.109Z,1.40
2024-02-04T22:41:42.787Z,1.27
2024-02-04T22:44:11.199Z,1.73
2024-02-04T22:46:38.834Z,1.90
2024-02-04T22:49:06.447Z,1.85
2024-02-04T22:51:36.264Z,1.98
2024-02-04T22:54:04.281Z,1.45
2024-02-04T22:56:32.126Z,1.65
2024-02-04T22:59:00.039Z,0.88
2024-02-04T23:01:28.724Z,0.98
2024-02-04T23:03:59.102Z,1.63
2024-02-04T23:06:29.332Z,2.00
2024-02-04T23:08:56.774Z,1.40
2024-02-04T23:11:24.241Z,1.10
2024-02-04T23:13:51.701Z,1.13
2024-02-04T23:16:19.204Z,1.92
2024-02-04T23:18:47.336Z,1.55
2024-02-04T23:21:14.962Z,1.67
2024-02-04T23:23:42.352Z,0.95
2024-02-04T23:26:09.693Z,1.20
2024-02-04T23:28:37.158Z,1.40
2024-02-04T23:31:04.650Z,0.95
2024-02-04T23:33:32.241Z,1.00
2024-02-04T23:35:59.651Z,1.10
2024-02-04T23:38:26.961Z,1.60
2024-02-04T23:40:54.380Z,1.63
2024-02-04T23:43:21.874Z,1.42
2024-02-04T23:45:49.458Z,1.35
2024-02-04T23:48:16.867Z,1.40
2024-02-04T23:50:44.828Z,1.60
2024-02-04T23:53:12.277Z,1.67
2024-02-04T23:55:39.716Z,2.22
2024-02-04T23:58:07.184Z,1.58
